Terminal Aerodrome Forecast
Issued by NWS

Home | Current Version | Previous Version | Text Only | Print | Product List | Glossary Off
Versions: 1 2 3 4 5 6 7 8 9 10 11 12 13 14 15 16 17 18 19 20 21 22

000
FTUS43 KMPX 290853 AAC
TAFRWF
TAF AMD
KRWF 290853Z 2909/3006 00000KT 1/2SM FG VV002
      TEMPO 2909/2911 3SM BR FEW002
     FM291100 16002KT 3SM BR SCT012
      TEMPO 2911/2913 6SM BR BKN010
     FM291400 17005KT P6SM SKC=

USA.gov is the U.S. government's official web portal to all federal, state and local government web resources and services.